sensor_id;sensor_type;location;lat;lon;timestamp;P1;durP1;ratioP1;P2;durP2;ratioP2
15451;SDS011;7827;53.594;9.938;2022-09-04T00:01:32;2.67;;;1.70;;
15451;SDS011;7827;53.594;9.938;2022-09-04T00:04:13;3.30;;;1.40;;
15451;SDS011;7827;53.594;9.938;2022-09-04T00:06:49;2.70;;;1.40;;
15451;SDS011;7827;53.594;9.938;2022-09-04T00:09:27;2.85;;;1.52;;
15451;SDS011;7827;53.594;9.938;2022-09-04T00:12:03;2.92;;;1.50;;
15451;SDS011;7827;53.594;9.938;2022-09-04T00:14:35;2.20;;;1.58;;
15451;SDS011;7827;53.594;9.938;2022-09-04T00:17:12;2.05;;;1.70;;
15451;SDS011;7827;53.594;9.938;2022-09-04T00:19:47;3.33;;;1.30;;
15451;SDS011;7827;53.594;9.938;2022-09-04T00:22:24;3.40;;;1.83;;
15451;SDS011;7827;53.594;9.938;2022-09-04T00:25:01;5.10;;;1.60;;
15451;SDS011;7827;53.594;9.938;2022-09-04T00:27:35;2.38;;;1.50;;
15451;SDS011;7827;53.594;9.938;2022-09-04T00:30:13;4.13;;;1.75;;
15451;SDS011;7827;53.594;9.938;2022-09-04T00:32:50;5.82;;;1.60;;
15451;SDS011;7827;53.594;9.938;2022-09-04T00:35:22;3.42;;;1.40;;
15451;SDS011;7827;53.594;9.938;2022-09-04T00:37:57;2.28;;;1.40;;
15451;SDS011;7827;53.594;9.938;2022-09-04T00:40:30;1.50;;;1.40;;
15451;SDS011;7827;53.594;9.938;2022-09-04T00:43:19;2.45;;;1.50;;
15451;SDS011;7827;53.594;9.938;2022-09-04T00:49:31;6.18;;;1.85;;
15451;SDS011;7827;53.594;9.938;2022-09-04T00:52:15;3.50;;;1.60;;
15451;SDS011;7827;53.594;9.938;2022-09-04T00:55:07;3.85;;;1.42;;
15451;SDS011;7827;53.594;9.938;2022-09-04T00:57:54;4.13;;;1.50;;
15451;SDS011;7827;53.594;9.938;2022-09-04T01:00:35;2.22;;;1.60;;
15451;SDS011;7827;53.594;9.938;2022-09-04T01:03:28;3.78;;;1.50;;
15451;SDS011;7827;53.594;9.938;2022-09-04T01:06:23;3.08;;;1.75;;
15451;SDS011;7827;53.594;9.938;2022-09-04T01:12:00;1.42;;;1.30;;
15451;SDS011;7827;53.594;9.938;2022-09-04T01:14:39;2.22;;;1.67;;
15451;SDS011;7827;53.594;9.938;2022-09-04T01:17:16;4.90;;;1.60;;
15451;SDS011;7827;53.594;9.938;2022-09-04T01:19:52;1.55;;;1.35;;
15451;SDS011;7827;53.594;9.938;2022-09-04T01:22:32;2.33;;;1.65;;
15451;SDS011;7827;53.594;9.938;2022-09-04T01:28:48;3.35;;;1.40;;
15451;SDS011;7827;53.594;9.938;2022-09-04T01:31:34;3.22;;;1.52;;
15451;SDS011;7827;53.594;9.938;2022-09-04T01:34:18;4.57;;;1.40;;
15451;SDS011;7827;53.594;9.938;2022-09-04T01:36:57;3.70;;;1.73;;
15451;SDS011;7827;53.594;9.938;2022-09-04T01:39:33;2.65;;;1.55;;
15451;SDS011;7827;53.594;9.938;2022-09-04T01:42:05;2.53;;;1.55;;
15451;SDS011;7827;53.594;9.938;2022-09-04T01:44:40;2.92;;;1.50;;
15451;SDS011;7827;53.594;9.938;2022-09-04T01:47:10;2.80;;;1.55;;
15451;SDS011;7827;53.594;9.938;2022-09-04T01:49:43;3.28;;;1.80;;
15451;SDS011;7827;53.594;9.938;2022-09-04T01:52:34;1.75;;;1.50;;
15451;SDS011;7827;53.594;9.938;2022-09-04T01:55:11;1.95;;;1.60;;
15451;SDS011;7827;53.594;9.938;2022-09-04T01:57:54;3.78;;;1.75;;
15451;SDS011;7827;53.594;9.938;2022-09-04T02:00:32;2.83;;;1.60;;
15451;SDS011;7827;53.594;9.938;2022-09-04T02:03:06;5.35;;;1.85;;
15451;SDS011;7827;53.594;9.938;2022-09-04T02:05:49;2.75;;;1.60;;
15451;SDS011;7827;53.594;9.938;2022-09-04T02:08:34;2.92;;;1.77;;
15451;SDS011;7827;53.594;9.938;2022-09-04T02:11:22;3.63;;;1.50;;
15451;SDS011;7827;53.594;9.938;2022-09-04T02:13:57;1.92;;;1.42;;
15451;SDS011;7827;53.594;9.938;2022-09-04T02:16:50;2.38;;;1.75;;
15451;SDS011;7827;53.594;9.938;2022-09-04T02:19:33;2.38;;;1.30;;
15451;SDS011;7827;53.594;9.938;2022-09-04T02:22:11;4.18;;;1.70;;
15451;SDS011;7827;53.594;9.938;2022-09-04T02:24:47;5.50;;;1.50;;
15451;SDS011;7827;53.594;9.938;2022-09-04T02:27:20;1.90;;;1.50;;
15451;SDS011;7827;53.594;9.938;2022-09-04T02:29:56;3.03;;;1.55;;
15451;SDS011;7827;53.594;9.938;2022-09-04T02:32:32;2.47;;;1.65;;
15451;SDS011;7827;53.594;9.938;2022-09-04T02:35:07;3.83;;;1.75;;
15451;SDS011;7827;53.594;9.938;2022-09-04T02:37:43;3.53;;;1.67;;
15451;SDS011;7827;53.594;9.938;2022-09-04T02:40:20;2.90;;;1.67;;
15451;SDS011;7827;53.594;9.938;2022-09-04T02:42:59;3.20;;;1.83;;
15451;SDS011;7827;53.594;9.938;2022-09-04T02:45:44;3.13;;;1.70;;
15451;SDS011;7827;53.594;9.938;2022-09-04T02:48:19;2.05;;;1.77;;
15451;SDS011;7827;53.594;9.938;2022-09-04T02:51:01;3.67;;;1.75;;
15451;SDS011;7827;53.594;9.938;2022-09-04T02:53:53;3.63;;;1.67;;
15451;SDS011;7827;53.594;9.938;2022-09-04T02:56:33;2.15;;;1.60;;
15451;SDS011;7827;53.594;9.938;2022-09-04T02:59:19;1.70;;;1.60;;
15451;SDS011;7827;53.594;9.938;2022-09-04T03:01:59;3.42;;;1.77;;
15451;SDS011;7827;53.594;9.938;2022-09-04T03:04:32;3.78;;;1.60;;
15451;SDS011;7827;53.594;9.938;2022-09-04T03:07:07;2.45;;;1.50;;
15451;SDS011;7827;53.594;9.938;2022-09-04T03:09:41;2.65;;;1.60;;
15451;SDS011;7827;53.594;9.938;2022-09-04T03:12:20;3.15;;;1.80;;
15451;SDS011;7827;53.594;9.938;2022-09-04T03:14:58;2.53;;;1.60;;
15451;SDS011;7827;53.594;9.938;2022-09-04T03:17:32;2.45;;;1.73;;
15451;SDS011;7827;53.594;9.938;2022-09-04T03:20:06;4.93;;;1.70;;
15451;SDS011;7827;53.594;9.938;2022-09-04T03:22:38;4.88;;;1.80;;
15451;SDS011;7827;53.594;9.938;2022-09-04T03:25:24;1.63;;;1.52;;
15451;SDS011;7827;53.594;9.938;2022-09-04T03:28:05;2.50;;;1.85;;
15451;SDS011;7827;53.594;9.938;2022-09-04T03:30:39;3.97;;;1.92;;
15451;SDS011;7827;53.594;9.938;2022-09-04T03:33:10;6.60;;;1.90;;
15451;SDS011;7827;53.594;9.938;2022-09-04T03:35:46;1.90;;;1.70;;
15451;SDS011;7827;53.594;9.938;2022-09-04T03:38:22;2.13;;;1.80;;
15451;SDS011;7827;53.594;9.938;2022-09-04T03:40:57;2.17;;;1.80;;
15451;SDS011;7827;53.594;9.938;2022-09-04T03:43:42;2.33;;;1.52;;
15451;SDS011;7827;53.594;9.938;2022-09-04T03:46:25;3.45;;;1.90;;
15451;SDS011;7827;53.594;9.938;2022-09-04T03:49:09;3.65;;;1.70;;
15451;SDS011;7827;53.594;9.938;2022-09-04T03:51:52;3.83;;;1.83;;
15451;SDS011;7827;53.594;9.938;2022-09-04T03:54:31;2.80;;;1.58;;
15451;SDS011;7827;53.594;9.938;2022-09-04T03:57:16;2.30;;;1.90;;
15451;SDS011;7827;53.594;9.938;2022-09-04T04:00:05;2.33;;;1.63;;
15451;SDS011;7827;53.594;9.938;2022-09-04T04:02:44;6.53;;;1.65;;
15451;SDS011;7827;53.594;9.938;2022-09-04T04:05:31;2.00;;;1.70;;
15451;SDS011;7827;53.594;9.938;2022-09-04T04:08:26;2.25;;;1.70;;
15451;SDS011;7827;53.594;9.938;2022-09-04T04:11:08;3.95;;;1.90;;
15451;SDS011;7827;53.594;9.938;2022-09-04T04:14:00;1.90;;;1.70;;
15451;SDS011;7827;53.594;9.938;2022-09-04T04:16:45;1.88;;;1.67;;
15451;SDS011;7827;53.594;9.938;2022-09-04T04:19:33;3.78;;;1.70;;
15451;SDS011;7827;53.594;9.938;2022-09-04T04:22:16;3.80;;;1.58;;
15451;SDS011;7827;53.594;9.938;2022-09-04T04:25:05;1.83;;;1.70;;
15451;SDS011;7827;53.594;9.938;2022-09-04T04:27:46;3.10;;;2.03;;
15451;SDS011;7827;53.594;9.938;2022-09-04T04:30:23;3.05;;;1.85;;
15451;SDS011;7827;53.594;9.938;2022-09-04T04:32:59;3.60;;;1.80;;
15451;SDS011;7827;53.594;9.938;2022-09-04T04:35:46;4.53;;;1.80;;
15451;SDS011;7827;53.594;9.938;2022-09-04T04:38:26;3.60;;;1.92;;
15451;SDS011;7827;53.594;9.938;2022-09-04T04:41:07;3.92;;;1.77;;
15451;SDS011;7827;53.594;9.938;2022-09-04T04:44:00;3.95;;;1.80;;
15451;SDS011;7827;53.594;9.938;2022-09-04T04:46:40;2.58;;;2.05;;
15451;SDS011;7827;53.594;9.938;2022-09-04T04:49:22;5.65;;;1.85;;
15451;SDS011;7827;53.594;9.938;2022-09-04T04:52:20;2.88;;;1.90;;
15451;SDS011;7827;53.594;9.938;2022-09-04T04:55:12;3.45;;;1.85;;
15451;SDS011;7827;53.594;9.938;2022-09-04T04:57:52;2.28;;;1.80;;
15451;SDS011;7827;53.594;9.938;2022-09-04T05:00:41;3.47;;;1.80;;
15451;SDS011;7827;53.594;9.938;2022-09-04T05:03:15;2.47;;;1.85;;
15451;SDS011;7827;53.594;9.938;2022-09-04T05:05:51;4.45;;;1.70;;
15451;SDS011;7827;53.594;9.938;2022-09-04T05:08:32;4.18;;;1.90;;
15451;SDS011;7827;53.594;9.938;2022-09-04T05:11:06;4.88;;;2.30;;
15451;SDS011;7827;53.594;9.938;2022-09-04T05:13:46;2.28;;;1.80;;
15451;SDS011;7827;53.594;9.938;2022-09-04T05:16:35;3.55;;;1.75;;
15451;SDS011;7827;53.594;9.938;2022-09-04T05:19:20;3.40;;;1.85;;
15451;SDS011;7827;53.594;9.938;2022-09-04T05:21:52;3.65;;;1.90;;
15451;SDS011;7827;53.594;9.938;2022-09-04T05:24:28;4.57;;;2.17;;
15451;SDS011;7827;53.594;9.938;2022-09-04T05:27:02;3.22;;;1.85;;
15451;SDS011;7827;53.594;9.938;2022-09-04T05:29:40;2.58;;;2.10;;
15451;SDS011;7827;53.594;9.938;2022-09-04T05:32:18;3.65;;;2.17;;
15451;SDS011;7827;53.594;9.938;2022-09-04T05:34:55;3.97;;;1.90;;
15451;SDS011;7827;53.594;9.938;2022-09-04T05:37:31;2.38;;;1.70;;
15451;SDS011;7827;53.594;9.938;2022-09-04T05:40:06;5.32;;;1.70;;
15451;SDS011;7827;53.594;9.938;2022-09-04T05:42:43;2.40;;;1.98;;
15451;SDS011;7827;53.594;9.938;2022-09-04T05:45:27;4.15;;;2.22;;
15451;SDS011;7827;53.594;9.938;2022-09-04T05:48:08;4.55;;;2.08;;
15451;SDS011;7827;53.594;9.938;2022-09-04T05:50:48;2.40;;;1.85;;
15451;SDS011;7827;53.594;9.938;2022-09-04T05:53:40;2.75;;;1.80;;
15451;SDS011;7827;53.594;9.938;2022-09-04T05:59:34;5.93;;;2.10;;
15451;SDS011;7827;53.594;9.938;2022-09-04T06:08:25;4.65;;;1.88;;
15451;SDS011;7827;53.594;9.938;2022-09-04T06:14:23;2.00;;;1.70;;
15451;SDS011;7827;53.594;9.938;2022-09-04T06:17:09;2.25;;;1.83;;
15451;SDS011;7827;53.594;9.938;2022-09-04T06:20:02;2.05;;;1.80;;
15451;SDS011;7827;53.594;9.938;2022-09-04T06:22:49;3.83;;;1.88;;
15451;SDS011;7827;53.594;9.938;2022-09-04T06:25:40;3.35;;;1.88;;
15451;SDS011;7827;53.594;9.938;2022-09-04T06:28:25;3.80;;;2.10;;
15451;SDS011;7827;53.594;9.938;2022-09-04T06:31:28;2.95;;;1.80;;
15451;SDS011;7827;53.594;9.938;2022-09-04T06:34:19;3.30;;;2.10;;
15451;SDS011;7827;53.594;9.938;2022-09-04T06:37:00;2.60;;;1.90;;
15451;SDS011;7827;53.594;9.938;2022-09-04T06:39:49;2.60;;;2.10;;
15451;SDS011;7827;53.594;9.938;2022-09-04T06:42:31;3.00;;;1.80;;
15451;SDS011;7827;53.594;9.938;2022-09-04T06:45:11;3.78;;;1.92;;
15451;SDS011;7827;53.594;9.938;2022-09-04T06:47:56;2.10;;;1.90;;
15451;SDS011;7827;53.594;9.938;2022-09-04T06:50:34;5.55;;;2.33;;
15451;SDS011;7827;53.594;9.938;2022-09-04T06:53:22;7.05;;;2.30;;
15451;SDS011;7827;53.594;9.938;2022-09-04T06:56:06;4.75;;;1.88;;
15451;SDS011;7827;53.594;9.938;2022-09-04T06:58:49;3.95;;;2.10;;
15451;SDS011;7827;53.594;9.938;2022-09-04T07:01:44;3.00;;;2.10;;
15451;SDS011;7827;53.594;9.938;2022-09-04T07:04:34;5.78;;;2.20;;
15451;SDS011;7827;53.594;9.938;2022-09-04T07:07:13;3.28;;;2.00;;
15451;SDS011;7827;53.594;9.938;2022-09-04T07:09:52;7.72;;;2.00;;
15451;SDS011;7827;53.594;9.938;2022-09-04T07:18:23;3.97;;;2.00;;
15451;SDS011;7827;53.594;9.938;2022-09-04T07:21:09;5.22;;;2.58;;
15451;SDS011;7827;53.594;9.938;2022-09-04T07:23:47;7.57;;;2.05;;
15451;SDS011;7827;53.594;9.938;2022-09-04T07:26:28;5.30;;;2.70;;
15451;SDS011;7827;53.594;9.938;2022-09-04T07:29:12;3.72;;;2.15;;
15451;SDS011;7827;53.594;9.938;2022-09-04T07:31:54;5.25;;;2.50;;
15451;SDS011;7827;53.594;9.938;2022-09-04T07:34:28;3.50;;;2.40;;
15451;SDS011;7827;53.594;9.938;2022-09-04T07:37:08;6.05;;;2.40;;
15451;SDS011;7827;53.594;9.938;2022-09-04T07:39:54;4.70;;;2.50;;
15451;SDS011;7827;53.594;9.938;2022-09-04T07:42:37;4.00;;;2.45;;
15451;SDS011;7827;53.594;9.938;2022-09-04T07:45:13;6.22;;;2.78;;
15451;SDS011;7827;53.594;9.938;2022-09-04T07:47:56;5.57;;;2.90;;
15451;SDS011;7827;53.594;9.938;2022-09-04T07:50:34;3.67;;;2.50;;
15451;SDS011;7827;53.594;9.938;2022-09-04T07:53:12;5.15;;;2.75;;
15451;SDS011;7827;53.594;9.938;2022-09-04T07:55:50;6.32;;;2.83;;
15451;SDS011;7827;53.594;9.938;2022-09-04T08:01:27;3.90;;;2.70;;
15451;SDS011;7827;53.594;9.938;2022-09-04T08:07:11;4.43;;;2.80;;
15451;SDS011;7827;53.594;9.938;2022-09-04T08:09:57;6.65;;;3.15;;
15451;SDS011;7827;53.594;9.938;2022-09-04T08:12:42;5.43;;;2.85;;
15451;SDS011;7827;53.594;9.938;2022-09-04T08:15:37;5.07;;;3.05;;
15451;SDS011;7827;53.594;9.938;2022-09-04T08:18:21;4.22;;;3.10;;
15451;SDS011;7827;53.594;9.938;2022-09-04T08:21:20;3.38;;;2.97;;
15451;SDS011;7827;53.594;9.938;2022-09-04T08:24:01;5.28;;;3.30;;
15451;SDS011;7827;53.594;9.938;2022-09-04T08:26:48;5.57;;;3.20;;
15451;SDS011;7827;53.594;9.938;2022-09-04T08:29:31;4.45;;;3.35;;
15451;SDS011;7827;53.594;9.938;2022-09-04T08:32:23;5.68;;;2.95;;
15451;SDS011;7827;53.594;9.938;2022-09-04T08:35:09;4.75;;;3.08;;
15451;SDS011;7827;53.594;9.938;2022-09-04T08:37:52;4.00;;;3.20;;
15451;SDS011;7827;53.594;9.938;2022-09-04T08:40:43;3.83;;;2.80;;
15451;SDS011;7827;53.594;9.938;2022-09-04T08:43:37;6.07;;;3.33;;
15451;SDS011;7827;53.594;9.938;2022-09-04T08:46:43;3.72;;;3.00;;
15451;SDS011;7827;53.594;9.938;2022-09-04T08:55:41;5.32;;;3.50;;
15451;SDS011;7827;53.594;9.938;2022-09-04T09:08:08;6.25;;;3.50;;
15451;SDS011;7827;53.594;9.938;2022-09-04T09:17:22;8.73;;;3.67;;
15451;SDS011;7827;53.594;9.938;2022-09-04T09:20:08;3.55;;;3.10;;
15451;SDS011;7827;53.594;9.938;2022-09-04T09:23:13;6.28;;;3.42;;
15451;SDS011;7827;53.594;9.938;2022-09-04T09:25:51;3.40;;;3.08;;
15451;SDS011;7827;53.594;9.938;2022-09-04T09:28:56;8.27;;;3.63;;
15451;SDS011;7827;53.594;9.938;2022-09-04T09:31:58;5.22;;;3.25;;
15451;SDS011;7827;53.594;9.938;2022-09-04T09:35:21;7.15;;;3.22;;
15451;SDS011;7827;53.594;9.938;2022-09-04T09:38:29;4.32;;;3.40;;
15451;SDS011;7827;53.594;9.938;2022-09-04T09:44:37;4.38;;;3.28;;
15451;SDS011;7827;53.594;9.938;2022-09-04T09:47:44;5.13;;;3.10;;
15451;SDS011;7827;53.594;9.938;2022-09-04T09:50:48;5.38;;;3.28;;
15451;SDS011;7827;53.594;9.938;2022-09-04T10:00:04;5.82;;;3.58;;
15451;SDS011;7827;53.594;9.938;2022-09-04T10:02:44;6.18;;;3.40;;
15451;SDS011;7827;53.594;9.938;2022-09-04T10:09:17;5.00;;;3.08;;
15451;SDS011;7827;53.594;9.938;2022-09-04T10:15:15;4.00;;;2.97;;
15451;SDS011;7827;53.594;9.938;2022-09-04T10:18:21;3.40;;;3.10;;
15451;SDS011;7827;53.594;9.938;2022-09-04T10:21:18;4.47;;;3.10;;
15451;SDS011;7827;53.594;9.938;2022-09-04T10:24:43;6.35;;;3.20;;
15451;SDS011;7827;53.594;9.938;2022-09-04T10:33:47;6.47;;;3.20;;
15451;SDS011;7827;53.594;9.938;2022-09-04T10:36:34;3.25;;;2.97;;
15451;SDS011;7827;53.594;9.938;2022-09-04T10:39:16;3.50;;;3.15;;
15451;SDS011;7827;53.594;9.938;2022-09-04T10:42:12;4.07;;;3.10;;
15451;SDS011;7827;53.594;9.938;2022-09-04T10:45:10;3.20;;;2.88;;
15451;SDS011;7827;53.594;9.938;2022-09-04T10:48:04;3.30;;;3.00;;
15451;SDS011;7827;53.594;9.938;2022-09-04T10:51:04;4.50;;;2.75;;
15451;SDS011;7827;53.594;9.938;2022-09-04T10:54:00;7.05;;;3.33;;
15451;SDS011;7827;53.594;9.938;2022-09-04T10:57:09;4.70;;;2.80;;
15451;SDS011;7827;53.594;9.938;2022-09-04T10:59:53;4.50;;;3.10;;
15451;SDS011;7827;53.594;9.938;2022-09-04T11:02:48;4.80;;;3.20;;
15451;SDS011;7827;53.594;9.938;2022-09-04T11:05:36;6.18;;;2.90;;
15451;SDS011;7827;53.594;9.938;2022-09-04T11:08:25;4.07;;;2.78;;
15451;SDS011;7827;53.594;9.938;2022-09-04T11:11:13;3.85;;;2.88;;
15451;SDS011;7827;53.594;9.938;2022-09-04T11:14:02;6.20;;;3.05;;
15451;SDS011;7827;53.594;9.938;2022-09-04T11:19:57;4.65;;;3.30;;
15451;SDS011;7827;53.594;9.938;2022-09-04T11:22:52;4.03;;;3.17;;
15451;SDS011;7827;53.594;9.938;2022-09-04T11:25:53;5.75;;;2.90;;
15451;SDS011;7827;53.594;9.938;2022-09-04T11:28:50;4.47;;;2.83;;
15451;SDS011;7827;53.594;9.938;2022-09-04T11:31:34;6.82;;;3.25;;
15451;SDS011;7827;53.594;9.938;2022-09-04T11:34:33;3.58;;;3.03;;
15451;SDS011;7827;53.594;9.938;2022-09-04T11:37:31;3.97;;;3.45;;
15451;SDS011;7827;53.594;9.938;2022-09-04T11:43:35;6.15;;;2.90;;
15451;SDS011;7827;53.594;9.938;2022-09-04T11:46:56;3.17;;;2.90;;
15451;SDS011;7827;53.594;9.938;2022-09-04T11:52:46;5.65;;;3.05;;
15451;SDS011;7827;53.594;9.938;2022-09-04T11:55:35;3.40;;;2.90;;
15451;SDS011;7827;53.594;9.938;2022-09-04T11:58:29;5.03;;;3.00;;
15451;SDS011;7827;53.594;9.938;2022-09-04T12:01:23;5.07;;;3.05;;
15451;SDS011;7827;53.594;9.938;2022-09-04T12:04:22;3.30;;;3.00;;
15451;SDS011;7827;53.594;9.938;2022-09-04T12:07:02;4.10;;;3.10;;
15451;SDS011;7827;53.594;9.938;2022-09-04T12:09:45;4.30;;;3.63;;
15451;SDS011;7827;53.594;9.938;2022-09-04T12:16:00;3.88;;;2.63;;
15451;SDS011;7827;53.594;9.938;2022-09-04T12:24:58;3.25;;;2.95;;
15451;SDS011;7827;53.594;9.938;2022-09-04T12:30:46;3.40;;;3.10;;
15451;SDS011;7827;53.594;9.938;2022-09-04T12:33:42;7.10;;;3.13;;
15451;SDS011;7827;53.594;9.938;2022-09-04T12:36:40;4.03;;;3.10;;
15451;SDS011;7827;53.594;9.938;2022-09-04T12:39:49;6.40;;;3.58;;
15451;SDS011;7827;53.594;9.938;2022-09-04T12:42:35;3.30;;;3.00;;
15451;SDS011;7827;53.594;9.938;2022-09-04T12:45:09;3.72;;;3.30;;
15451;SDS011;7827;53.594;9.938;2022-09-04T12:47:50;8.60;;;3.60;;
15451;SDS011;7827;53.594;9.938;2022-09-04T12:50:33;7.13;;;3.40;;
15451;SDS011;7827;53.594;9.938;2022-09-04T12:53:10;5.13;;;3.50;;
15451;SDS011;7827;53.594;9.938;2022-09-04T12:55:50;6.75;;;3.20;;
15451;SDS011;7827;53.594;9.938;2022-09-04T12:58:32;4.72;;;3.53;;
15451;SDS011;7827;53.594;9.938;2022-09-04T13:01:16;7.47;;;3.08;;
15451;SDS011;7827;53.594;9.938;2022-09-04T13:03:58;9.23;;;3.03;;
15451;SDS011;7827;53.594;9.938;2022-09-04T13:06:41;6.07;;;3.00;;
15451;SDS011;7827;53.594;9.938;2022-09-04T13:09:23;3.95;;;3.30;;
15451;SDS011;7827;53.594;9.938;2022-09-04T13:11:59;3.83;;;3.33;;
15451;SDS011;7827;53.594;9.938;2022-09-04T13:14:53;2.92;;;2.63;;
15451;SDS011;7827;53.594;9.938;2022-09-04T13:17:38;3.83;;;2.78;;
15451;SDS011;7827;53.594;9.938;2022-09-04T13:20:16;3.70;;;2.88;;
15451;SDS011;7827;53.594;9.938;2022-09-04T13:22:53;3.83;;;2.88;;
15451;SDS011;7827;53.594;9.938;2022-09-04T13:25:39;3.95;;;2.70;;
15451;SDS011;7827;53.594;9.938;2022-09-04T13:28:21;3.80;;;2.97;;
15451;SDS011;7827;53.594;9.938;2022-09-04T13:31:04;5.38;;;3.05;;
15451;SDS011;7827;53.594;9.938;2022-09-04T13:33:53;3.30;;;2.97;;
15451;SDS011;7827;53.594;9.938;2022-09-04T13:36:30;10.18;;;3.40;;
15451;SDS011;7827;53.594;9.938;2022-09-04T13:39:22;3.58;;;2.78;;
15451;SDS011;7827;53.594;9.938;2022-09-04T13:42:16;4.78;;;3.03;;
15451;SDS011;7827;53.594;9.938;2022-09-04T13:44:59;4.63;;;3.08;;
15451;SDS011;7827;53.594;9.938;2022-09-04T13:47:41;5.53;;;3.13;;
15451;SDS011;7827;53.594;9.938;2022-09-04T13:50:17;3.45;;;2.80;;
15451;SDS011;7827;53.594;9.938;2022-09-04T13:52:52;3.00;;;2.63;;
15451;SDS011;7827;53.594;9.938;2022-09-04T13:55:25;3.58;;;2.95;;
15451;SDS011;7827;53.594;9.938;2022-09-04T13:57:58;3.35;;;2.83;;
15451;SDS011;7827;53.594;9.938;2022-09-04T14:00:38;4.97;;;2.90;;
15451;SDS011;7827;53.594;9.938;2022-09-04T14:03:12;6.90;;;3.10;;
15451;SDS011;7827;53.594;9.938;2022-09-04T14:05:45;8.18;;;3.00;;
15451;SDS011;7827;53.594;9.938;2022-09-04T14:08:13;4.70;;;3.00;;
15451;SDS011;7827;53.594;9.938;2022-09-04T14:10:51;3.17;;;2.70;;
15451;SDS011;7827;53.594;9.938;2022-09-04T14:13:38;3.53;;;2.45;;
15451;SDS011;7827;53.594;9.938;2022-09-04T14:16:29;5.00;;;2.90;;
15451;SDS011;7827;53.594;9.938;2022-09-04T14:19:06;4.70;;;2.85;;
15451;SDS011;7827;53.594;9.938;2022-09-04T14:21:55;5.05;;;2.80;;
15451;SDS011;7827;53.594;9.938;2022-09-04T14:24:41;5.82;;;2.97;;
15451;SDS011;7827;53.594;9.938;2022-09-04T14:27:18;2.92;;;2.63;;
15451;SDS011;7827;53.594;9.938;2022-09-04T14:29:56;5.30;;;2.90;;
15451;SDS011;7827;53.594;9.938;2022-09-04T14:32:35;3.30;;;2.90;;
15451;SDS011;7827;53.594;9.938;2022-09-04T14:35:14;3.95;;;2.90;;
15451;SDS011;7827;53.594;9.938;2022-09-04T14:37:55;5.28;;;2.88;;
15451;SDS011;7827;53.594;9.938;2022-09-04T14:40:46;4.57;;;2.90;;
15451;SDS011;7827;53.594;9.938;2022-09-04T14:43:24;4.68;;;3.20;;
15451;SDS011;7827;53.594;9.938;2022-09-04T14:46:06;4.03;;;2.88;;
15451;SDS011;7827;53.594;9.938;2022-09-04T14:48:43;3.13;;;2.83;;
15451;SDS011;7827;53.594;9.938;2022-09-04T14:51:16;4.72;;;2.72;;
15451;SDS011;7827;53.594;9.938;2022-09-04T14:53:59;4.07;;;2.88;;
15451;SDS011;7827;53.594;9.938;2022-09-04T14:56:30;3.55;;;3.13;;
15451;SDS011;7827;53.594;9.938;2022-09-04T14:59:05;3.10;;;2.80;;
15451;SDS011;7827;53.594;9.938;2022-09-04T15:01:53;4.60;;;3.10;;
15451;SDS011;7827;53.594;9.938;2022-09-04T15:04:31;5.80;;;3.17;;
15451;SDS011;7827;53.594;9.938;2022-09-04T15:07:15;6.13;;;3.00;;
15451;SDS011;7827;53.594;9.938;2022-09-04T15:10:05;4.70;;;3.20;;
15451;SDS011;7827;53.594;9.938;2022-09-04T15:12:41;4.28;;;2.90;;
15451;SDS011;7827;53.594;9.938;2022-09-04T15:15:17;4.10;;;2.88;;
15451;SDS011;7827;53.594;9.938;2022-09-04T15:17:52;3.08;;;2.70;;
15451;SDS011;7827;53.594;9.938;2022-09-04T15:20:28;4.20;;;3.00;;
15451;SDS011;7827;53.594;9.938;2022-09-04T15:23:04;3.17;;;2.88;;
15451;SDS011;7827;53.594;9.938;2022-09-04T15:25:41;3.88;;;3.00;;
15451;SDS011;7827;53.594;9.938;2022-09-04T15:28:26;4.38;;;3.15;;
15451;SDS011;7827;53.594;9.938;2022-09-04T15:31:07;6.65;;;3.15;;
15451;SDS011;7827;53.594;9.938;2022-09-04T15:33:42;3.67;;;3.00;;
15451;SDS011;7827;53.594;9.938;2022-09-04T15:36:15;3.15;;;2.80;;
15451;SDS011;7827;53.594;9.938;2022-09-04T15:38:46;3.30;;;2.58;;
15451;SDS011;7827;53.594;9.938;2022-09-04T15:41:20;5.32;;;3.10;;
15451;SDS011;7827;53.594;9.938;2022-09-04T15:43:54;5.80;;;2.75;;
15451;SDS011;7827;53.594;9.938;2022-09-04T15:46:33;4.78;;;3.45;;
15451;SDS011;7827;53.594;9.938;2022-09-04T15:49:20;5.15;;;2.92;;
15451;SDS011;7827;53.594;9.938;2022-09-04T15:51:58;3.72;;;2.70;;
15451;SDS011;7827;53.594;9.938;2022-09-04T15:54:49;4.68;;;2.90;;
15451;SDS011;7827;53.594;9.938;2022-09-04T15:57:28;3.80;;;3.08;;
15451;SDS011;7827;53.594;9.938;2022-09-04T16:00:07;4.22;;;3.10;;
15451;SDS011;7827;53.594;9.938;2022-09-04T16:02:41;6.63;;;3.00;;
15451;SDS011;7827;53.594;9.938;2022-09-04T16:05:22;4.85;;;2.70;;
15451;SDS011;7827;53.594;9.938;2022-09-04T16:07:56;6.32;;;3.10;;
15451;SDS011;7827;53.594;9.938;2022-09-04T16:10:39;10.02;;;2.60;;
15451;SDS011;7827;53.594;9.938;2022-09-04T16:13:28;5.68;;;2.80;;
15451;SDS011;7827;53.594;9.938;2022-09-04T16:16:08;4.00;;;2.88;;
15451;SDS011;7827;53.594;9.938;2022-09-04T16:18:41;6.13;;;2.60;;
15451;SDS011;7827;53.594;9.938;2022-09-04T16:21:19;4.70;;;3.10;;
15451;SDS011;7827;53.594;9.938;2022-09-04T16:23:59;4.13;;;3.10;;
15451;SDS011;7827;53.594;9.938;2022-09-04T16:26:34;3.58;;;2.90;;
15451;SDS011;7827;53.594;9.938;2022-09-04T16:29:05;4.18;;;2.72;;
15451;SDS011;7827;53.594;9.938;2022-09-04T16:31:40;4.63;;;2.90;;
15451;SDS011;7827;53.594;9.938;2022-09-04T16:34:19;6.65;;;2.75;;
15451;SDS011;7827;53.594;9.938;2022-09-04T16:36:50;2.95;;;2.50;;
15451;SDS011;7827;53.594;9.938;2022-09-04T16:39:31;4.55;;;3.10;;
15451;SDS011;7827;53.594;9.938;2022-09-04T16:42:09;5.20;;;3.00;;
15451;SDS011;7827;53.594;9.938;2022-09-04T16:44:46;3.67;;;2.92;;
15451;SDS011;7827;53.594;9.938;2022-09-04T16:47:18;4.18;;;2.70;;
15451;SDS011;7827;53.594;9.938;2022-09-04T16:49:56;3.85;;;3.10;;
15451;SDS011;7827;53.594;9.938;2022-09-04T16:52:44;3.92;;;3.10;;
15451;SDS011;7827;53.594;9.938;2022-09-04T16:55:40;4.72;;;2.65;;
15451;SDS011;7827;53.594;9.938;2022-09-04T16:58:17;4.75;;;3.40;;
15451;SDS011;7827;53.594;9.938;2022-09-04T17:01:03;4.78;;;2.72;;
15451;SDS011;7827;53.594;9.938;2022-09-04T17:03:41;3.05;;;2.75;;
15451;SDS011;7827;53.594;9.938;2022-09-04T17:06:21;3.50;;;2.90;;
15451;SDS011;7827;53.594;9.938;2022-09-04T17:08:57;8.50;;;2.88;;
15451;SDS011;7827;53.594;9.938;2022-09-04T17:11:37;6.20;;;2.80;;
15451;SDS011;7827;53.594;9.938;2022-09-04T17:14:21;4.88;;;3.47;;
15451;SDS011;7827;53.594;9.938;2022-09-04T17:17:02;4.57;;;3.20;;
15451;SDS011;7827;53.594;9.938;2022-09-04T17:19:57;3.50;;;3.20;;
15451;SDS011;7827;53.594;9.938;2022-09-04T17:22:39;5.85;;;3.22;;
15451;SDS011;7827;53.594;9.938;2022-09-04T17:25:33;5.68;;;4.70;;
15451;SDS011;7827;53.594;9.938;2022-09-04T17:28:39;4.65;;;4.00;;
15451;SDS011;7827;53.594;9.938;2022-09-04T17:31:39;4.72;;;3.15;;
15451;SDS011;7827;53.594;9.938;2022-09-04T17:34:13;5.65;;;5.10;;
15451;SDS011;7827;53.594;9.938;2022-09-04T17:37:07;4.95;;;4.45;;
15451;SDS011;7827;53.594;9.938;2022-09-04T17:40:03;6.68;;;4.80;;
15451;SDS011;7827;53.594;9.938;2022-09-04T17:43:04;6.57;;;4.10;;
15451;SDS011;7827;53.594;9.938;2022-09-04T17:45:52;7.32;;;4.47;;
15451;SDS011;7827;53.594;9.938;2022-09-04T17:48:37;4.78;;;3.75;;
15451;SDS011;7827;53.594;9.938;2022-09-04T17:51:13;8.98;;;4.22;;
15451;SDS011;7827;53.594;9.938;2022-09-04T17:53:46;6.07;;;3.85;;
15451;SDS011;7827;53.594;9.938;2022-09-04T17:56:19;7.30;;;4.00;;
15451;SDS011;7827;53.594;9.938;2022-09-04T17:58:53;4.75;;;4.03;;
15451;SDS011;7827;53.594;9.938;2022-09-04T18:01:29;9.05;;;3.88;;
15451;SDS011;7827;53.594;9.938;2022-09-04T18:04:19;8.00;;;3.35;;
15451;SDS011;7827;53.594;9.938;2022-09-04T18:06:57;5.45;;;3.60;;
15451;SDS011;7827;53.594;9.938;2022-09-04T18:09:56;4.43;;;3.63;;
15451;SDS011;7827;53.594;9.938;2022-09-04T18:12:34;4.75;;;3.55;;
15451;SDS011;7827;53.594;9.938;2022-09-04T18:15:07;4.90;;;3.88;;
15451;SDS011;7827;53.594;9.938;2022-09-04T18:18:06;5.43;;;4.22;;
15451;SDS011;7827;53.594;9.938;2022-09-04T18:20:40;7.30;;;5.00;;